Time;durP1;ratioP1;P1;durP2;ratioP2;P2;SDS_P1;SDS_P2;PMS_P1;PMS_P2;Temp;Humidity;BMP_temperature;BMP_pressure;BME280_temperature;BME280_humidity;BME280_pressure;Samples;Min_cycle;Max_cycle;Signal;HPM_P1;HPM_P2
2021/12/03 05:32:09;;;;;;;;;3.50;3.50;;;;;5.87;62.37;101074.63;5118720;23;45352;-53
2021/12/03 05:34:34;;;;;;;;;9.50;6.00;;;;;5.74;62.33;101040.34;4957317;28;46336;-54
2021/12/03 05:36:59;;;;;;;;;3.00;3.00;;;;;5.97;62.16;101064.69;4960445;28;45661;-52
2021/12/03 05:39:25;;;;;;;;;10.50;5.00;;;;;6.03;62.20;101065.47;4961280;28;45377;-55
2021/12/03 05:41:50;;;;;;;;;5.00;5.00;;;;;6.04;62.03;101059.19;4945643;28;45359;-52
2021/12/03 05:44:16;;;;;;;;;6.75;5.50;;;;;6.13;62.01;101074.09;4941349;28;46407;-56
2021/12/03 05:46:41;;;;;;;;;6.00;6.00;;;;;6.17;62.39;101056.28;4940920;28;45599;-52
2021/12/03 05:49:06;;;;;;;;;10.25;6.50;;;;;6.23;61.56;101066.78;4941354;28;45294;-54
2021/12/03 05:51:32;;;;;;;;;10.75;9.50;;;;;6.27;61.68;101060.47;4940809;28;45570;-54
2021/12/03 05:53:58;;;;;;;;;5.00;5.00;;;;;6.27;61.24;101063.13;4941002;28;45385;-55
2021/12/03 05:56:24;;;;;;;;;10.75;7.00;;;;;6.22;61.11;101047.25;4940352;28;45272;-54
2021/12/03 05:58:51;;;;;;;;;12.00;6.25;;;;;6.22;61.37;101049.91;4940693;28;45144;-54
2021/12/03 06:01:17;;;;;;;;;7.50;6.75;;;;;6.22;61.27;101049.91;4940839;28;45453;-56
2021/12/03 06:03:45;;;;;;;;;6.75;5.00;;;;;6.20;61.66;101042.91;4935923;28;46210;-53
2021/12/03 06:06:11;;;;;;;;;6.00;5.75;;;;;6.20;61.14;101026.94;4941219;28;45502;-53
2021/12/03 06:08:36;;;;;;;;;8.25;7.00;;;;;6.07;61.47;101016.56;4940570;28;45250;-53
2021/12/03 06:11:02;;;;;;;;;8.75;6.00;;;;;6.00;61.62;101030.91;4940989;28;46173;-54
2021/12/03 06:13:27;;;;;;;;;4.00;3.00;;;;;5.95;62.06;101021.28;4940655;28;45653;-54
2021/12/03 06:15:52;;;;;;;;;6.75;5.00;;;;;5.96;62.37;101033.66;4940623;28;49247;-55
2021/12/03 06:18:18;;;;;;;;;7.25;3.50;;;;;5.83;62.08;101022.41;4940760;28;45691;-55
2021/12/03 06:20:43;;;;;;;;;6.25;5.00;;;;;5.87;62.34;101042.69;4940374;28;45491;-56
2021/12/03 06:23:08;;;;;;;;;5.00;5.00;;;;;5.84;62.60;101037.47;4940838;28;46124;-56
2021/12/03 06:25:34;;;;;;;;;1.00;1.00;;;;;5.85;62.83;101036.56;4941126;28;45360;-55
2021/12/03 06:27:59;;;;;;;;;4.50;4.50;;;;;5.82;62.74;101038.38;4940974;28;45423;-52
2021/12/03 06:30:26;;;;;;;;;5.50;5.50;;;;;5.86;62.77;101040.09;4940398;28;45332;-53
2021/12/03 06:32:53;;;;;;;;;5.75;4.00;;;;;5.83;62.79;101040.16;4939169;28;45737;-54
2021/12/03 06:35:19;;;;;;;;;5.25;4.50;;;;;5.89;62.27;101038.25;4940218;28;45388;-55
2021/12/03 06:37:46;;;;;;;;;8.75;6.75;;;;;6.02;62.27;101049.50;4940693;28;45367;-53
2021/12/03 06:40:15;;;;;;;;;9.50;6.25;;;;;6.04;62.32;101040.56;4940707;28;45633;-51
2021/12/03 06:42:40;;;;;;;;;7.00;6.00;;;;;6.02;62.54;101037.09;4940298;28;45474;-54
2021/12/03 06:45:07;;;;;;;;;10.50;7.50;;;;;6.06;61.99;101037.88;4940619;28;45259;-52
2021/12/03 06:47:33;;;;;;;;;5.50;5.00;;;;;5.94;62.14;101035.50;4940370;28;45427;-53
2021/12/03 06:49:59;;;;;;;;;10.75;7.00;;;;;5.97;62.32;101032.75;4940617;28;45800;-50
2021/12/03 06:52:25;;;;;;;;;4.50;2.75;;;;;5.91;62.58;101032.91;4940241;28;46161;-53
2021/12/03 06:54:56;;;;;;;;;5.00;2.75;;;;;5.97;62.23;101036.28;4940437;28;45331;-52
2021/12/03 06:57:22;;;;;;;;;6.00;4.50;;;;;5.75;62.80;101035.00;4941426;28;45379;-55
2021/12/03 06:59:47;;;;;;;;;3.50;3.50;;;;;5.69;63.02;101028.03;4941071;28;45386;-54
2021/12/03 07:02:13;;;;;;;;;5.00;3.00;;;;;5.57;63.52;101014.97;4939730;28;45375;-52
2021/12/03 07:04:40;;;;;;;;;3.50;3.00;;;;;5.76;62.64;101036.75;4940119;28;45630;-55
2021/12/03 07:07:06;;;;;;;;;5.00;2.50;;;;;5.79;62.95;101041.09;4936075;28;45665;-64
2021/12/03 07:09:32;;;;;;;;;6.25;4.50;;;;;5.88;62.75;101038.28;4939740;28;45506;-59
2021/12/03 07:11:57;;;;;;;;;4.50;4.00;;;;;5.84;62.95;101032.13;4940349;28;45383;-59
2021/12/03 07:14:23;;;;;;;;;5.50;3.25;;;;;5.90;62.82;101024.03;4939979;28;45311;-58
2021/12/03 07:16:48;;;;;;;;;3.25;3.25;;;;;5.78;62.47;101034.06;4940310;28;45339;-58
2021/12/03 07:19:14;;;;;;;;;6.00;5.00;;;;;5.79;62.78;101034.00;4939478;28;45334;-57
2021/12/03 07:21:40;;;;;;;;;1.25;1.25;;;;;5.54;63.23;101015.03;4940011;28;45331;-57
2021/12/03 07:24:06;;;;;;;;;2.50;2.50;;;;;5.58;63.64;101014.06;4939783;28;45403;-58
2021/12/03 07:26:31;;;;;;;;;5.00;5.00;;;;;5.59;63.12;100999.00;4936364;28;45476;-58
2021/12/03 07:28:56;;;;;;;;;6.50;2.00;;;;;5.74;63.12;101005.75;4934459;28;45446;-58
2021/12/03 07:31:22;;;;;;;;;1.00;1.00;;;;;5.82;62.64;101011.78;4935479;28;46287;-58
2021/12/03 07:33:48;;;;;;;;;3.75;2.50;;;;;5.76;62.60;100999.50;4935061;28;45373;-57
2021/12/03 07:36:13;;;;;;;;;5.00;2.00;;;;;5.74;63.00;101016.41;4937971;28;45717;-58
2021/12/03 07:38:39;;;;;;;;;3.00;3.00;;;;;5.69;63.25;101020.06;4937435;28;45442;-57
2021/12/03 07:41:04;;;;;;;;;0.00;0.00;;;;;5.73;62.97;101028.81;4939723;28;45539;-57
2021/12/03 07:43:31;;;;;;;;;1.75;1.75;;;;;5.69;63.41;101033.34;4937801;28;45312;-57
2021/12/03 07:45:56;;;;;;;;;3.00;3.00;;;;;5.70;62.84;101034.19;4938238;28;45418;-58
2021/12/03 07:48:23;;;;;;;;;1.50;1.50;;;;;5.70;63.01;101015.56;4938318;28;45494;-58
2021/12/03 07:50:50;;;;;;;;;4.00;2.25;;;;;5.78;62.76;101026.09;4939086;28;47415;-59
2021/12/03 07:53:19;;;;;;;;;5.00;3.00;;;;;5.79;63.00;101011.84;4938518;28;45503;-59
2021/12/03 07:55:46;;;;;;;;;1.75;1.75;;;;;5.84;62.58;101020.63;4937103;28;46500;-55
2021/12/03 07:58:11;;;;;;;;;5.00;2.50;;;;;5.68;62.58;101039.56;4937863;28;45964;-55
2021/12/03 08:00:37;;;;;;;;;2.00;2.00;;;;;5.67;63.07;101011.22;4937719;28;45438;-55
2021/12/03 08:03:03;;;;;;;;;6.00;3.00;;;;;5.78;63.14;101012.78;4937226;28;45394;-57
2021/12/03 08:05:29;;;;;;;;;3.75;2.75;;;;;5.84;62.46;101002.00;4934553;28;45271;-57
2021/12/03 08:07:55;;;;;;;;;2.00;2.00;;;;;5.69;62.69;101016.50;4939631;28;46152;-55
2021/12/03 08:10:20;;;;;;;;;5.00;3.00;;;;;5.58;62.92;100997.25;4938350;28;46339;-55
2021/12/03 08:12:46;;;;;;;;;7.00;3.00;;;;;5.69;62.95;101020.06;4939157;28;45351;-58
2021/12/03 08:15:14;;;;;;;;;2.50;2.00;;;;;5.81;62.35;101018.88;4938833;28;45377;-57
2021/12/03 08:17:40;;;;;;;;;5.50;3.00;;;;;5.83;62.18;101016.19;4938809;28;46072;-56
2021/12/03 08:20:07;;;;;;;;;6.25;3.50;;;;;5.88;62.15;101014.34;4939243;28;45457;-57
2021/12/03 08:22:33;;;;;;;;;5.00;2.75;;;;;5.77;61.91;101011.03;4939204;28;45266;-57
2021/12/03 08:24:59;;;;;;;;;5.75;3.50;;;;;5.76;61.96;101006.59;4939143;28;45628;-55
2021/12/03 08:27:24;;;;;;;;;9.00;3.00;;;;;5.76;62.16;101012.81;4939311;28;45744;-57
2021/12/03 08:29:50;;;;;;;;;3.00;2.00;;;;;5.82;62.31;101023.31;4939304;28;46194;-56
2021/12/03 08:32:15;;;;;;;;;3.00;3.00;;;;;5.84;62.41;101013.50;4939154;28;45450;-58
2021/12/03 08:34:40;;;;;;;;;4.00;4.00;;;;;5.88;61.79;101003.69;4939018;28;45906;-57
2021/12/03 08:37:08;;;;;;;;;3.50;3.50;;;;;5.95;61.64;101002.66;4938809;28;45401;-57
2021/12/03 08:39:33;;;;;;;;;7.00;4.50;;;;;5.93;61.83;101008.03;4938606;28;47113;-58
2021/12/03 08:41:59;;;;;;;;;5.50;5.00;;;;;6.02;61.29;101015.78;4939088;28;45836;-58
2021/12/03 08:44:25;;;;;;;;;3.00;3.00;;;;;5.94;61.82;101020.41;4939036;28;45540;-56
2021/12/03 08:46:56;;;;;;;;;3.00;3.00;;;;;5.97;61.67;101008.81;4938293;28;45375;-56
2021/12/03 08:49:33;;;;;;;;;5.25;2.00;;;;;6.03;60.85;101011.34;4938509;28;46229;-55
2021/12/03 08:57:12;;;;;;;;;8.25;5.50;;;;;5.99;60.87;101014.97;4929000;28;45278;-57
2021/12/03 08:59:38;;;;;;;;;6.00;4.00;;;;;5.94;61.26;101022.19;4941800;28;46190;-56
2021/12/03 09:02:04;;;;;;;;;3.50;3.50;;;;;5.88;61.35;101017.88;4941835;28;45389;-56
2021/12/03 09:04:29;;;;;;;;;7.00;5.50;;;;;5.91;61.43;101011.63;4939562;28;45574;-56
2021/12/03 09:06:57;;;;;;;;;7.00;6.00;;;;;5.83;61.45;101010.88;4942200;28;45807;-57
2021/12/03 09:09:22;;;;;;;;;5.50;5.50;;;;;5.82;61.06;101004.69;4941892;28;46208;-55
2021/12/03 09:11:48;;;;;;;;;1.00;0.00;;;;;5.80;61.46;101017.13;4942030;28;45469;-56
2021/12/03 09:14:16;;;;;;;;;8.50;6.00;;;;;5.74;61.73;101016.41;4942180;28;45366;-56
2021/12/03 09:16:43;;;;;;;;;6.00;5.25;;;;;5.75;61.60;101018.16;4941641;28;45482;-57
2021/12/03 09:19:17;;;;;;;;;6.00;5.00;;;;;5.73;61.88;101004.88;4941255;28;46291;-55
2021/12/03 09:21:42;;;;;;;;;5.25;5.25;;;;;5.76;61.71;101010.16;4941459;28;45614;-56
2021/12/03 09:26:36;;;;;;;;;5.25;3.50;;;;;5.72;62.44;100985.38;4941514;28;45505;-55
2021/12/03 09:29:05;;;;;;;;;6.00;5.00;;;;;5.81;62.46;100991.41;4941775;28;45682;-57
2021/12/03 09:31:33;;;;;;;;;6.50;5.00;;;;;5.78;62.83;100981.72;4941453;28;45330;-55
2021/12/03 09:33:58;;;;;;;;;9.00;5.00;;;;;5.83;62.78;100987.81;4941600;28;45424;-57
2021/12/03 09:36:23;;;;;;;;;6.00;4.50;;;;;5.73;62.95;100980.94;4941049;28;45419;-55
2021/12/03 09:38:49;;;;;;;;;5.75;5.75;;;;;5.80;62.99;100973.69;4941344;28;46244;-55
2021/12/03 09:41:18;;;;;;;;;6.00;3.00;;;;;5.87;63.21;100962.88;4941196;28;45594;-56
2021/12/03 09:43:51;;;;;;;;;7.75;5.50;;;;;6.02;63.35;100972.34;4941743;28;45906;-55
2021/12/03 09:51:11;;;;;;;;;5.00;4.50;;;;;5.95;63.61;100968.06;4941253;28;45312;-57
2021/12/03 09:54:11;;;;;;;;;6.25;5.00;;;;;5.90;63.87;100967.28;4940547;28;45319;-56
2021/12/03 09:56:33;;;;;;;;;6.25;6.00;;;;;5.95;63.86;100960.09;4940869;28;45406;-56
2021/12/03 10:01:53;;;;;;;;;6.50;6.50;;;;;6.00;64.30;100969.72;4940658;28;45433;-55
2021/12/03 10:15:38;;;;;;;;;5.75;5.75;;;;;5.94;66.73;100967.19;4941095;28;45241;-56
2021/12/03 10:18:20;;;;;;;;;9.00;6.25;;;;;5.81;67.45;100949.72;4941014;28;46930;-56
2021/12/03 10:21:01;;;;;;;;;7.00;4.00;;;;;5.76;67.27;100938.31;4940450;28;46565;-54
2021/12/03 10:37:24;;;;;;;;;3.00;3.00;;;;;5.74;68.47;100913.53;4940802;28;45358;-55
2021/12/03 10:39:51;;;;;;;;;6.00;5.50;;;;;5.66;68.60;100903.06;4924812;28;46306;-52
2021/12/03 10:42:28;;;;;;;;;2.00;2.00;;;;;5.61;69.26;100896.13;4939869;28;47381;-52
2021/12/03 10:47:56;;;;;;;;;5.00;5.00;;;;;5.55;70.45;100891.81;4940298;28;45720;-53
2021/12/03 10:58:35;;;;;;;;;5.00;5.00;;;;;5.40;71.87;100873.56;4940136;28;45574;-53
2021/12/03 11:34:16;;;;;;;;;6.50;5.75;;;;;5.32;73.55;100811.72;4939732;28;45381;-51
2021/12/03 13:16:51;;;;;;;;;2.75;2.75;;;;;5.81;72.94;100625.16;4938511;28;45745;-57
2021/12/03 14:38:13;;;;;;;;;1.00;1.00;;;;;5.69;76.36;100463.28;4940586;28;45753;-59
2021/12/03 14:56:39;;;;;;;;;3.00;2.00;;;;;5.90;75.64;100446.69;4939876;28;45418;-55
2021/12/03 14:59:13;;;;;;;;;3.50;2.00;;;;;5.83;75.94;100409.66;4940175;28;45745;-56
2021/12/03 15:07:09;;;;;;;;;2.00;1.00;;;;;6.03;75.91;100402.81;4928094;28;45177;-58
2021/12/03 15:09:38;;;;;;;;;1.00;1.00;;;;;6.05;75.25;100408.06;4939888;28;45362;-55
2021/12/03 15:18:03;;;;;;;;;1.00;1.00;;;;;6.00;75.42;100399.38;4940027;28;45615;-56
2021/12/03 15:20:30;;;;;;;;;1.00;1.00;;;;;6.04;76.24;100395.69;4928953;28;45486;-57
2021/12/03 15:36:18;;;;;;;;;0.50;0.50;;;;;6.01;76.52;100391.34;4904459;28;46071;-55
2021/12/03 16:10:47;;;;;;;;;1.00;1.00;;;;;6.18;76.16;100337.56;4939471;28;45426;-56
2021/12/03 16:24:02;;;;;;;;;2.00;1.00;;;;;6.44;76.51;100316.22;4939091;28;45382;-56
2021/12/03 16:52:52;;;;;;;;;3.50;2.75;;;;;6.83;74.83;100265.03;4939781;28;45385;-55
2021/12/03 16:55:19;;;;;;;;;2.75;2.75;;;;;6.83;75.08;100257.06;4940389;28;45432;-52
2021/12/03 16:57:47;;;;;;;;;3.00;3.00;;;;;6.84;75.29;100256.13;4940331;28;45399;-56
2021/12/03 17:00:29;;;;;;;;;3.00;3.00;;;;;6.83;75.21;100249.94;4940319;28;46384;-54
2021/12/03 17:03:43;;;;;;;;;4.50;4.50;;;;;6.79;75.64;100245.66;4939333;28;45351;-52
2021/12/03 17:06:32;;;;;;;;;7.75;5.50;;;;;6.88;75.93;100244.44;4927114;28;45228;-54
2021/12/03 17:08:47;;;;;;;;;3.00;3.00;;;;;6.93;75.79;100245.13;4929040;28;45394;-54
2021/12/03 17:19:13;;;;;;;;;6.50;6.00;;;;;6.91;75.97;100219.44;4942528;28;45402;-60
2021/12/03 17:56:06;;;;;;;;;6.75;6.75;;;;;7.17;75.60;100172.19;4943208;28;45288;-58
2021/12/03 17:58:38;;;;;;;;;7.50;7.50;;;;;7.14;75.75;100164.31;4952477;28;45288;-57
2021/12/03 18:01:29;;;;;;;;;9.75;9.00;;;;;7.15;76.62;100144.69;4951634;28;46337;-55
2021/12/03 18:43:52;;;;;;;;;9.00;9.00;;;;;7.22;76.42;100082.22;4940272;28;45478;-56
2021/12/03 18:49:02;;;;;;;;;11.75;8.50;;;;;7.17;77.13;100059.34;4930535;28;45386;-56
2021/12/03 18:56:44;;;;;;;;;15.25;11.50;;;;;7.22;76.95;100050.25;4941876;28;46152;-56
2021/12/03 18:59:09;;;;;;;;;12.50;12.50;;;;;7.20;77.31;100043.22;4940707;28;45360;-54
2021/12/03 19:01:36;;;;;;;;;12.00;11.25;;;;;7.26;77.41;100047.41;4941243;28;45393;-56
2021/12/03 19:09:05;;;;;;;;;8.00;7.75;;;;;7.38;77.52;100028.22;4935910;28;45392;-57
2021/12/03 19:11:41;;;;;;;;;14.25;11.75;;;;;7.44;77.75;100027.94;4941321;28;45444;-57
2021/12/03 19:14:07;;;;;;;;;12.50;11.75;;;;;7.41;77.00;100015.59;4941104;28;45521;-54
2021/12/03 19:16:33;;;;;;;;;12.00;11.50;;;;;7.43;77.42;100021.75;4941113;28;46220;-54
2021/12/03 19:19:00;;;;;;;;;13.00;11.75;;;;;7.51;77.64;100026.75;4941096;28;45343;-56
2021/12/03 19:21:28;;;;;;;;;11.75;10.25;;;;;7.53;77.40;100017.75;4941610;28;45350;-52
2021/12/03 19:23:57;;;;;;;;;9.50;9.25;;;;;7.58;77.59;100020.19;4940976;28;45981;-56
2021/12/03 19:26:24;;;;;;;;;11.50;11.50;;;;;7.62;77.57;100019.13;4935120;28;47057;-54
2021/12/03 19:28:50;;;;;;;;;11.00;11.00;;;;;7.67;77.41;100009.09;4935786;28;45528;-55
2021/12/03 19:31:17;;;;;;;;;11.50;9.25;;;;;7.70;77.60;100000.97;4941188;28;45390;-57
2021/12/03 19:33:42;;;;;;;;;8.75;8.00;;;;;7.68;77.89;99988.63;4940466;28;45400;-55
2021/12/03 19:36:10;;;;;;;;;6.75;6.75;;;;;7.68;79.38;100000.16;4941476;28;46409;-55
2021/12/03 19:38:38;;;;;;;;;10.00;7.00;;;;;7.69;79.37;99996.56;4940827;28;45308;-59
2021/12/03 19:41:15;;;;;;;;;5.00;5.00;;;;;7.71;79.57;99981.38;4940091;28;45342;-56
2021/12/03 19:43:45;;;;;;;;;7.00;2.75;;;;;7.75;78.95;99980.25;4939119;28;45427;-55
2021/12/03 19:46:14;;;;;;;;;7.00;6.25;;;;;7.78;79.35;99972.13;4940891;28;47031;-57
2021/12/03 19:48:50;;;;;;;;;10.75;8.25;;;;;7.78;79.47;99964.13;4941129;28;45390;-57
2021/12/03 19:51:16;;;;;;;;;6.25;6.25;;;;;7.76;79.75;99952.66;4940609;28;45410;-56
2021/12/03 19:53:55;;;;;;;;;7.00;4.25;;;;;7.78;79.68;99957.91;4940721;28;45892;-56
2021/12/03 19:56:25;;;;;;;;;7.75;5.50;;;;;7.81;79.44;99947.97;4940211;28;45310;-59
2021/12/03 19:58:52;;;;;;;;;3.50;3.50;;;;;7.86;79.89;99945.09;4941272;28;45502;-56
2021/12/03 20:01:18;;;;;;;;;5.00;5.00;;;;;7.90;80.33;99944.00;4937625;28;45431;-57
2021/12/03 20:03:43;;;;;;;;;7.50;6.25;;;;;7.90;80.22;99941.34;4937874;28;45153;-57
2021/12/03 20:06:09;;;;;;;;;7.00;6.00;;;;;7.90;79.96;99931.53;4940486;28;47159;-57
2021/12/03 20:08:35;;;;;;;;;12.00;7.00;;;;;7.94;80.22;99934.91;4941124;28;45360;-53
2021/12/03 20:11:06;;;;;;;;;7.75;6.00;;;;;7.95;80.36;99913.50;4940446;28;45743;-55
2021/12/03 20:13:31;;;;;;;;;10.75;6.25;;;;;8.04;80.63;99930.00;4940700;28;45832;-53
2021/12/03 20:21:06;;;;;;;;;10.00;7.00;;;;;8.06;80.68;99907.63;4940334;28;45438;-55
2021/12/03 20:29:01;;;;;;;;;2.75;2.75;;;;;8.10;81.89;99895.84;4880728;29;45540;-53
2021/12/03 20:31:30;;;;;;;;;8.00;6.00;;;;;8.16;81.92;99900.03;4921346;28;45549;-55
2021/12/03 20:36:34;;;;;;;;;7.00;6.00;;;;;8.17;81.85;99893.72;4940592;28;45367;-54
2021/12/03 20:39:07;;;;;;;;;7.00;5.50;;;;;8.24;82.19;99887.19;4940115;28;45399;-53
2021/12/03 20:41:38;;;;;;;;;7.75;6.00;;;;;8.26;81.89;99880.78;4940648;28;45316;-54
2021/12/03 20:46:58;;;;;;;;;6.50;6.50;;;;;8.34;82.26;99869.75;4940126;28;45680;-54
2021/12/03 20:49:50;;;;;;;;;6.50;6.00;;;;;8.33;82.18;99865.38;4941498;28;45380;-57
2021/12/03 20:58:53;;;;;;;;;7.00;7.00;;;;;8.43;82.48;99855.94;4922204;28;45544;-55
2021/12/03 21:09:14;;;;;;;;;10.25;7.50;;;;;8.55;83.36;99839.28;4943540;28;45412;-53
2021/12/03 21:11:53;;;;;;;;;8.00;7.00;;;;;8.58;83.23;99824.91;4931691;28;45352;-53
2021/12/03 21:14:20;;;;;;;;;9.25;7.50;;;;;8.62;82.92;99823.81;4943304;28;45348;-54
2021/12/03 21:16:55;;;;;;;;;6.50;6.00;;;;;8.64;82.76;99819.25;4942997;28;45993;-53
2021/12/03 21:21:58;;;;;;;;;6.25;6.00;;;;;8.78;82.73;99797.13;4943501;28;45423;-55
2021/12/03 21:24:31;;;;;;;;;6.00;6.00;;;;;8.83;82.58;99795.09;4943073;28;45417;-53
2021/12/03 21:26:59;;;;;;;;;7.00;6.50;;;;;8.86;82.63;99792.22;4943356;28;46220;-54
2021/12/03 21:32:04;;;;;;;;;9.50;8.00;;;;;8.90;83.76;99797.34;4941693;28;45326;-53
2021/12/03 21:40:13;;;;;;;;;11.50;6.75;;;;;8.98;84.36;99788.91;4943077;28;45826;-53
2021/12/03 21:42:38;;;;;;;;;9.25;8.25;;;;;9.00;84.88;99777.19;4942781;28;45486;-55
2021/12/03 21:45:04;;;;;;;;;8.50;7.00;;;;;9.02;84.09;99775.28;4942939;28;45327;-53
2021/12/03 21:47:29;;;;;;;;;6.00;6.00;;;;;9.13;84.19;99776.50;4942852;28;45418;-58
2021/12/03 21:49:54;;;;;;;;;9.50;7.50;;;;;9.19;84.30;99776.16;4943022;28;46367;-54
2021/12/03 21:52:20;;;;;;;;;4.50;4.50;;;;;9.23;84.34;99778.59;4942804;28;45244;-53
2021/12/03 21:54:45;;;;;;;;;12.00;7.75;;;;;9.25;84.68;99774.03;4942774;28;45332;-58
2021/12/03 21:57:10;;;;;;;;;13.25;10.25;;;;;9.27;84.61;99771.25;4942934;28;45517;-55
2021/12/03 21:59:36;;;;;;;;;10.00;7.25;;;;;9.29;84.68;99759.50;4942742;28;46752;-54
2021/12/03 22:02:02;;;;;;;;;5.75;4.50;;;;;9.40;84.66;99764.25;4942574;28;45398;-55
2021/12/03 22:04:30;;;;;;;;;8.00;7.00;;;;;9.42;84.65;99749.84;4941281;28;45356;-54
2021/12/03 22:06:55;;;;;;;;;6.50;6.50;;;;;9.53;84.98;99754.56;4928523;28;45430;-56
2021/12/03 22:09:20;;;;;;;;;7.00;7.00;;;;;9.58;85.23;99736.47;4952917;28;46154;-55
2021/12/03 22:11:46;;;;;;;;;8.00;5.50;;;;;9.61;85.78;99735.44;4940793;28;45372;-54
2021/12/03 22:14:12;;;;;;;;;7.25;7.25;;;;;9.61;85.86;99728.22;4942096;28;45375;-54
2021/12/03 22:16:37;;;;;;;;;7.00;7.00;;;;;9.68;85.47;99721.59;4943788;28;45688;-57
2021/12/03 22:19:02;;;;;;;;;8.25;8.25;;;;;9.68;85.37;99712.72;4947773;28;46383;-52
2021/12/03 22:21:28;;;;;;;;;7.50;5.00;;;;;9.77;85.73;99709.50;4942231;28;45143;-54
2021/12/03 22:23:53;;;;;;;;;7.75;5.75;;;;;9.80;85.50;99703.94;4942307;28;45385;-55
2021/12/03 22:26:20;;;;;;;;;6.75;6.75;;;;;9.83;85.65;99693.06;4942578;28;46100;-54
2021/12/03 22:28:47;;;;;;;;;6.25;4.25;;;;;9.91;85.35;99693.47;4947605;28;46026;-51
2021/12/03 22:31:14;;;;;;;;;6.50;4.00;;;;;9.95;85.62;99686.97;4941862;28;45524;-55
2021/12/03 22:33:42;;;;;;;;;7.00;5.75;;;;;9.88;85.93;99669.53;4946691;28;45585;-54
2021/12/03 22:36:08;;;;;;;;;7.50;7.50;;;;;9.98;85.48;99675.22;4948020;28;45592;-53
2021/12/03 22:38:34;;;;;;;;;6.50;4.25;;;;;10.01;85.36;99667.00;4947424;28;47055;-52
2021/12/03 22:40:59;;;;;;;;;7.00;7.00;;;;;10.01;85.56;99669.69;4944177;28;45436;-54
2021/12/03 22:43:25;;;;;;;;;8.25;6.00;;;;;10.06;85.06;99670.25;4947202;28;45413;-51
2021/12/03 22:51:02;;;;;;;;;9.75;7.25;;;;;10.16;85.40;99669.59;4942450;28;45386;-56
2021/12/03 22:53:27;;;;;;;;;4.25;4.00;;;;;10.16;84.81;99634.78;4942630;28;45327;-54
2021/12/03 22:55:53;;;;;;;;;5.25;5.25;;;;;10.18;85.49;99630.22;4942518;28;45240;-54
2021/12/03 22:58:18;;;;;;;;;4.25;4.00;;;;;10.26;85.56;99635.09;4942144;28;45308;-55
2021/12/03 23:00:46;;;;;;;;;5.00;5.00;;;;;10.30;85.66;99625.03;4942465;28;45262;-53
2021/12/03 23:03:13;;;;;;;;;8.00;6.25;;;;;10.28;85.76;99613.59;4938401;28;45199;-55
2021/12/03 23:05:41;;;;;;;;;3.00;3.00;;;;;10.34;86.27;99622.09;4947588;28;46057;-55
2021/12/03 23:08:07;;;;;;;;;2.00;2.00;;;;;10.35;86.28;99612.25;4958930;28;46211;-55
2021/12/03 23:10:33;;;;;;;;;5.00;4.00;;;;;10.38;85.80;99604.03;4950627;28;45454;-56
2021/12/03 23:12:59;;;;;;;;;3.00;3.00;;;;;10.42;85.44;99597.50;4943299;28;45258;-55
2021/12/03 23:15:25;;;;;;;;;3.00;3.00;;;;;10.48;85.63;99591.75;4941954;28;45490;-51
2021/12/03 23:17:51;;;;;;;;;2.00;2.00;;;;;10.49;85.82;99577.38;4946960;28;46235;-55
2021/12/03 23:20:17;;;;;;;;;2.75;2.75;;;;;10.54;85.13;99572.63;4950091;28;45393;-53
2021/12/03 23:22:42;;;;;;;;;3.00;3.00;;;;;10.51;86.36;99560.25;4944204;28;45204;-54
2021/12/03 23:25:08;;;;;;;;;2.00;1.00;;;;;10.54;86.58;99568.13;4942284;28;45443;-51
2021/12/03 23:27:34;;;;;;;;;3.00;3.00;;;;;10.55;86.10;99561.78;4941664;28;47137;-54
2021/12/03 23:30:00;;;;;;;;;2.00;2.00;;;;;10.60;86.19;99548.09;4941698;28;45355;-53
2021/12/03 23:32:26;;;;;;;;;1.25;1.00;;;;;10.54;86.67;99524.38;4941529;28;45367;-52
2021/12/03 23:34:51;;;;;;;;;1.50;1.00;;;;;10.61;86.69;99542.63;4941747;28;45339;-52
2021/12/03 23:37:17;;;;;;;;;1.00;1.00;;;;;10.65;86.33;99527.19;4941805;28;45260;-55
2021/12/03 23:39:42;;;;;;;;;2.00;2.00;;;;;10.65;87.39;99529.00;4941771;28;45377;-53
2021/12/03 23:42:08;;;;;;;;;1.00;1.00;;;;;10.71;87.03;99539.34;4941868;28;45350;-53
2021/12/03 23:44:33;;;;;;;;;1.00;1.00;;;;;10.71;87.67;99529.50;4941757;28;45431;-53
2021/12/03 23:46:59;;;;;;;;;0.00;0.00;;;;;10.74;87.56;99523.06;4941393;28;46061;-51
2021/12/03 23:49:26;;;;;;;;;0.50;0.50;;;;;10.79;87.10;99521.81;4941822;28;45232;-51
2021/12/03 23:51:54;;;;;;;;;0.50;0.50;;;;;10.83;87.87;99515.25;4942084;28;45281;-56
2021/12/03 23:54:22;;;;;;;;;0.00;0.00;;;;;10.86;88.51;99496.31;4941794;28;45959;-52
2021/12/03 23:56:47;;;;;;;;;1.00;0.00;;;;;10.80;88.19;99466.38;4941552;28;46118;-54
2021/12/03 23:59:12;;;;;;;;;0.00;0.00;;;;;10.94;88.47;99479.69;4941384;28;45334;-55
